sensor_id;sensor_type;location;lat;lon;timestamp;temperature;humidity
837;DHT22;400;53.550;9.932;2023-12-20T00:00:41;8.30;1.00
837;DHT22;400;53.550;9.932;2023-12-20T00:03:09;8.30;1.00
837;DHT22;400;53.550;9.932;2023-12-20T00:05:36;8.30;1.00
837;DHT22;400;53.550;9.932;2023-12-20T00:08:06;8.20;1.00
837;DHT22;400;53.550;9.932;2023-12-20T00:10:33;8.20;1.00
837;DHT22;400;53.550;9.932;2023-12-20T00:13:00;8.20;1.00
837;DHT22;400;53.550;9.932;2023-12-20T00:15:27;8.20;1.00
837;DHT22;400;53.550;9.932;2023-12-20T00:17:59;8.10;1.00
837;DHT22;400;53.550;9.932;2023-12-20T00:20:26;8.10;1.00
837;DHT22;400;53.550;9.932;2023-12-20T00:22:54;8.10;1.00
837;DHT22;400;53.550;9.932;2023-12-20T00:25:21;8.10;1.00
837;DHT22;400;53.550;9.932;2023-12-20T00:27:53;8.10;1.00
837;DHT22;400;53.550;9.932;2023-12-20T00:30:20;8.10;1.00
837;DHT22;400;53.550;9.932;2023-12-20T00:32:47;8.20;1.00
837;DHT22;400;53.550;9.932;2023-12-20T00:35:16;8.20;1.00
837;DHT22;400;53.550;9.932;2023-12-20T00:37:43;8.30;1.00
837;DHT22;400;53.550;9.932;2023-12-20T00:40:10;8.30;1.00
837;DHT22;400;53.550;9.932;2023-12-20T00:42:37;8.30;1.00
837;DHT22;400;53.550;9.932;2023-12-20T00:45:05;8.30;1.00
837;DHT22;400;53.550;9.932;2023-12-20T00:47:32;8.30;1.00
837;DHT22;400;53.550;9.932;2023-12-20T00:50:00;8.30;1.00
837;DHT22;400;53.550;9.932;2023-12-20T00:52:28;8.20;1.00
837;DHT22;400;53.550;9.932;2023-12-20T00:55:02;8.30;1.00
837;DHT22;400;53.550;9.932;2023-12-20T00:57:37;8.20;1.00
837;DHT22;400;53.550;9.932;2023-12-20T01:00:07;8.20;1.00
837;DHT22;400;53.550;9.932;2023-12-20T01:02:35;8.20;1.00
837;DHT22;400;53.550;9.932;2023-12-20T01:05:02;8.20;1.00
837;DHT22;400;53.550;9.932;2023-12-20T01:07:30;8.20;1.00
837;DHT22;400;53.550;9.932;2023-12-20T01:10:05;8.20;1.00
837;DHT22;400;53.550;9.932;2023-12-20T01:12:32;8.10;1.00
837;DHT22;400;53.550;9.932;2023-12-20T01:14:59;8.10;1.00
837;DHT22;400;53.550;9.932;2023-12-20T01:17:29;8.10;1.00
837;DHT22;400;53.550;9.932;2023-12-20T01:19:56;8.00;1.00
837;DHT22;400;53.550;9.932;2023-12-20T01:22:23;8.00;1.00
837;DHT22;400;53.550;9.932;2023-12-20T01:24:52;8.00;1.00
837;DHT22;400;53.550;9.932;2023-12-20T01:27:19;7.90;1.00
837;DHT22;400;53.550;9.932;2023-12-20T01:29:46;7.90;1.00
837;DHT22;400;53.550;9.932;2023-12-20T01:32:14;7.90;1.00
837;DHT22;400;53.550;9.932;2023-12-20T01:34:41;7.80;1.00
837;DHT22;400;53.550;9.932;2023-12-20T01:37:08;7.80;1.00
837;DHT22;400;53.550;9.932;2023-12-20T01:39:35;7.80;1.00
837;DHT22;400;53.550;9.932;2023-12-20T01:42:04;7.70;1.00
837;DHT22;400;53.550;9.932;2023-12-20T01:44:30;7.80;1.00
837;DHT22;400;53.550;9.932;2023-12-20T01:46:57;7.80;1.00
837;DHT22;400;53.550;9.932;2023-12-20T01:49:24;7.90;1.00
837;DHT22;400;53.550;9.932;2023-12-20T01:51:52;7.90;1.00
837;DHT22;400;53.550;9.932;2023-12-20T01:54:19;7.80;1.00
837;DHT22;400;53.550;9.932;2023-12-20T01:56:48;7.80;1.00
837;DHT22;400;53.550;9.932;2023-12-20T01:59:18;7.80;1.00
837;DHT22;400;53.550;9.932;2023-12-20T02:01:45;7.80;1.00
837;DHT22;400;53.550;9.932;2023-12-20T02:04:12;7.90;1.00
837;DHT22;400;53.550;9.932;2023-12-20T02:06:40;7.90;1.00
837;DHT22;400;53.550;9.932;2023-12-20T02:09:07;7.70;1.00
837;DHT22;400;53.550;9.932;2023-12-20T02:11:34;7.70;1.00
837;DHT22;400;53.550;9.932;2023-12-20T02:14:02;7.70;1.00
837;DHT22;400;53.550;9.932;2023-12-20T02:16:30;7.80;1.00
837;DHT22;400;53.550;9.932;2023-12-20T02:18:59;7.80;1.00
837;DHT22;400;53.550;9.932;2023-12-20T02:21:32;7.80;1.00
837;DHT22;400;53.550;9.932;2023-12-20T02:23:59;7.50;1.00
837;DHT22;400;53.550;9.932;2023-12-20T02:26:26;7.60;1.00
837;DHT22;400;53.550;9.932;2023-12-20T02:28:53;7.60;1.00
837;DHT22;400;53.550;9.932;2023-12-20T02:31:21;7.40;1.00
837;DHT22;400;53.550;9.932;2023-12-20T02:33:48;7.50;1.00
837;DHT22;400;53.550;9.932;2023-12-20T02:36:15;7.50;1.00
837;DHT22;400;53.550;9.932;2023-12-20T02:38:43;7.50;1.00
837;DHT22;400;53.550;9.932;2023-12-20T02:41:11;7.60;1.00
837;DHT22;400;53.550;9.932;2023-12-20T02:43:41;7.60;1.00
837;DHT22;400;53.550;9.932;2023-12-20T02:46:08;7.60;1.00
837;DHT22;400;53.550;9.932;2023-12-20T02:48:35;7.70;1.00
837;DHT22;400;53.550;9.932;2023-12-20T02:51:02;7.70;1.00
837;DHT22;400;53.550;9.932;2023-12-20T02:53:29;7.70;1.00
837;DHT22;400;53.550;9.932;2023-12-20T02:55:57;7.70;1.00
837;DHT22;400;53.550;9.932;2023-12-20T02:58:24;7.80;1.00
837;DHT22;400;53.550;9.932;2023-12-20T03:00:51;7.80;1.00
837;DHT22;400;53.550;9.932;2023-12-20T03:03:20;7.80;1.00
837;DHT22;400;53.550;9.932;2023-12-20T03:05:47;7.80;1.00
837;DHT22;400;53.550;9.932;2023-12-20T03:08:14;7.70;1.00
837;DHT22;400;53.550;9.932;2023-12-20T03:10:41;7.80;1.00
837;DHT22;400;53.550;9.932;2023-12-20T03:13:09;7.80;1.00
837;DHT22;400;53.550;9.932;2023-12-20T03:15:36;7.70;1.00
837;DHT22;400;53.550;9.932;2023-12-20T03:18:03;7.70;1.00
837;DHT22;400;53.550;9.932;2023-12-20T03:20:30;7.70;1.00
837;DHT22;400;53.550;9.932;2023-12-20T03:22:59;7.70;1.00
837;DHT22;400;53.550;9.932;2023-12-20T03:25:26;7.70;1.00
837;DHT22;400;53.550;9.932;2023-12-20T03:27:53;7.80;1.00
837;DHT22;400;53.550;9.932;2023-12-20T03:30:21;7.80;1.00
837;DHT22;400;53.550;9.932;2023-12-20T03:32:48;7.80;1.00
837;DHT22;400;53.550;9.932;2023-12-20T03:35:15;7.70;1.00
837;DHT22;400;53.550;9.932;2023-12-20T03:37:42;7.70;1.00
837;DHT22;400;53.550;9.932;2023-12-20T03:40:10;7.70;1.00
837;DHT22;400;53.550;9.932;2023-12-20T03:42:37;7.60;1.00
837;DHT22;400;53.550;9.932;2023-12-20T03:45:04;7.60;1.00
837;DHT22;400;53.550;9.932;2023-12-20T03:47:33;7.70;1.00
837;DHT22;400;53.550;9.932;2023-12-20T03:50:06;7.70;1.00
837;DHT22;400;53.550;9.932;2023-12-20T03:52:33;7.70;1.00
837;DHT22;400;53.550;9.932;2023-12-20T03:55:00;7.70;1.00
837;DHT22;400;53.550;9.932;2023-12-20T03:57:27;7.60;1.00
837;DHT22;400;53.550;9.932;2023-12-20T03:59:54;7.60;1.00
837;DHT22;400;53.550;9.932;2023-12-20T04:02:21;7.70;1.00
837;DHT22;400;53.550;9.932;2023-12-20T04:04:49;7.70;1.00
837;DHT22;400;53.550;9.932;2023-12-20T04:07:18;7.70;1.00
837;DHT22;400;53.550;9.932;2023-12-20T04:09:45;7.70;1.00
837;DHT22;400;53.550;9.932;2023-12-20T04:12:13;7.70;1.00
837;DHT22;400;53.550;9.932;2023-12-20T04:14:40;7.70;1.00
837;DHT22;400;53.550;9.932;2023-12-20T04:17:07;7.80;1.00
837;DHT22;400;53.550;9.932;2023-12-20T04:19:34;7.80;1.00
837;DHT22;400;53.550;9.932;2023-12-20T04:22:02;7.80;1.00
837;DHT22;400;53.550;9.932;2023-12-20T04:24:31;7.80;1.00
837;DHT22;400;53.550;9.932;2023-12-20T04:26:58;7.90;1.00
837;DHT22;400;53.550;9.932;2023-12-20T04:29:25;7.80;1.00
837;DHT22;400;53.550;9.932;2023-12-20T04:31:52;7.80;1.00
837;DHT22;400;53.550;9.932;2023-12-20T04:34:20;7.80;1.00
837;DHT22;400;53.550;9.932;2023-12-20T04:36:47;7.70;1.00
837;DHT22;400;53.550;9.932;2023-12-20T04:39:15;7.70;1.00
837;DHT22;400;53.550;9.932;2023-12-20T04:41:42;7.70;1.00
837;DHT22;400;53.550;9.932;2023-12-20T04:44:09;7.70;1.00
837;DHT22;400;53.550;9.932;2023-12-20T04:46:36;7.70;1.00
837;DHT22;400;53.550;9.932;2023-12-20T04:49:02;7.60;1.00
837;DHT22;400;53.550;9.932;2023-12-20T04:51:30;7.60;1.00
837;DHT22;400;53.550;9.932;2023-12-20T04:53:59;7.60;1.00
837;DHT22;400;53.550;9.932;2023-12-20T04:56:27;7.70;1.00
837;DHT22;400;53.550;9.932;2023-12-20T04:58:54;7.60;1.00
837;DHT22;400;53.550;9.932;2023-12-20T05:01:21;7.70;1.00
837;DHT22;400;53.550;9.932;2023-12-20T05:03:48;7.60;1.00
837;DHT22;400;53.550;9.932;2023-12-20T05:06:15;7.60;1.00
837;DHT22;400;53.550;9.932;2023-12-20T05:08:42;7.60;1.00
837;DHT22;400;53.550;9.932;2023-12-20T05:11:08;7.40;1.00
837;DHT22;400;53.550;9.932;2023-12-20T05:13:37;7.60;1.00
837;DHT22;400;53.550;9.932;2023-12-20T05:16:05;7.60;1.00
837;DHT22;400;53.550;9.932;2023-12-20T05:18:32;7.60;1.00
837;DHT22;400;53.550;9.932;2023-12-20T05:20:59;7.60;1.00
837;DHT22;400;53.550;9.932;2023-12-20T05:23:25;7.50;1.00
837;DHT22;400;53.550;9.932;2023-12-20T05:25:52;7.60;1.00
837;DHT22;400;53.550;9.932;2023-12-20T05:28:19;7.60;1.00
837;DHT22;400;53.550;9.932;2023-12-20T05:30:47;7.50;1.00
837;DHT22;400;53.550;9.932;2023-12-20T05:33:14;7.50;1.00
837;DHT22;400;53.550;9.932;2023-12-20T05:35:41;7.60;1.00
837;DHT22;400;53.550;9.932;2023-12-20T05:38:08;7.60;1.00
837;DHT22;400;53.550;9.932;2023-12-20T05:40:35;7.60;1.00
837;DHT22;400;53.550;9.932;2023-12-20T05:43:01;7.60;1.00
837;DHT22;400;53.550;9.932;2023-12-20T05:45:28;7.60;1.00
837;DHT22;400;53.550;9.932;2023-12-20T05:47:57;7.60;1.00
837;DHT22;400;53.550;9.932;2023-12-20T05:50:24;7.60;1.00
837;DHT22;400;53.550;9.932;2023-12-20T05:52:51;7.50;1.00
837;DHT22;400;53.550;9.932;2023-12-20T05:55:18;7.60;1.00
837;DHT22;400;53.550;9.932;2023-12-20T05:57:45;7.60;1.00
837;DHT22;400;53.550;9.932;2023-12-20T06:00:14;7.60;1.00
837;DHT22;400;53.550;9.932;2023-12-20T06:02:41;7.60;1.00
837;DHT22;400;53.550;9.932;2023-12-20T06:05:09;7.60;1.00
837;DHT22;400;53.550;9.932;2023-12-20T06:07:36;7.60;1.00
837;DHT22;400;53.550;9.932;2023-12-20T06:10:03;7.60;1.00
837;DHT22;400;53.550;9.932;2023-12-20T06:12:31;7.60;1.00
837;DHT22;400;53.550;9.932;2023-12-20T06:15:01;7.60;1.00
837;DHT22;400;53.550;9.932;2023-12-20T06:17:35;7.60;1.00
837;DHT22;400;53.550;9.932;2023-12-20T06:20:04;7.60;1.00
837;DHT22;400;53.550;9.932;2023-12-20T06:22:34;7.60;1.00
837;DHT22;400;53.550;9.932;2023-12-20T06:25:01;7.60;1.00
837;DHT22;400;53.550;9.932;2023-12-20T06:27:28;7.60;1.00
837;DHT22;400;53.550;9.932;2023-12-20T06:29:56;7.70;1.00
837;DHT22;400;53.550;9.932;2023-12-20T06:32:23;7.70;1.00
837;DHT22;400;53.550;9.932;2023-12-20T06:34:50;7.70;1.00
837;DHT22;400;53.550;9.932;2023-12-20T06:37:16;7.70;1.00
837;DHT22;400;53.550;9.932;2023-12-20T06:39:50;7.70;1.00
837;DHT22;400;53.550;9.932;2023-12-20T06:42:21;7.70;1.00
837;DHT22;400;53.550;9.932;2023-12-20T06:44:48;7.70;1.00
837;DHT22;400;53.550;9.932;2023-12-20T06:47:15;7.70;1.00
837;DHT22;400;53.550;9.932;2023-12-20T06:49:42;7.70;1.00
837;DHT22;400;53.550;9.932;2023-12-20T06:52:11;7.80;1.00
837;DHT22;400;53.550;9.932;2023-12-20T06:54:41;7.70;1.00
837;DHT22;400;53.550;9.932;2023-12-20T06:57:09;7.70;1.00
837;DHT22;400;53.550;9.932;2023-12-20T06:59:38;7.80;1.00
837;DHT22;400;53.550;9.932;2023-12-20T07:02:06;7.80;1.00
837;DHT22;400;53.550;9.932;2023-12-20T07:04:39;7.80;1.00
837;DHT22;400;53.550;9.932;2023-12-20T07:07:08;7.80;1.00
837;DHT22;400;53.550;9.932;2023-12-20T07:09:36;7.80;1.00
837;DHT22;400;53.550;9.932;2023-12-20T07:12:06;7.70;1.00
837;DHT22;400;53.550;9.932;2023-12-20T07:14:36;7.80;1.00
837;DHT22;400;53.550;9.932;2023-12-20T07:17:03;7.80;1.00
837;DHT22;400;53.550;9.932;2023-12-20T07:19:30;7.80;1.00
837;DHT22;400;53.550;9.932;2023-12-20T07:21:58;7.80;1.00
837;DHT22;400;53.550;9.932;2023-12-20T07:24:25;7.80;1.00
837;DHT22;400;53.550;9.932;2023-12-20T07:26:52;7.90;1.00
837;DHT22;400;53.550;9.932;2023-12-20T07:29:20;7.80;1.00
837;DHT22;400;53.550;9.932;2023-12-20T07:31:48;7.90;1.00
837;DHT22;400;53.550;9.932;2023-12-20T07:34:19;7.90;1.00
837;DHT22;400;53.550;9.932;2023-12-20T07:36:46;7.90;1.00
837;DHT22;400;53.550;9.932;2023-12-20T07:39:14;8.00;1.00
837;DHT22;400;53.550;9.932;2023-12-20T07:41:41;8.00;1.00
837;DHT22;400;53.550;9.932;2023-12-20T07:44:11;8.10;1.00
837;DHT22;400;53.550;9.932;2023-12-20T07:46:40;8.10;1.00
837;DHT22;400;53.550;9.932;2023-12-20T07:49:11;8.10;1.00
837;DHT22;400;53.550;9.932;2023-12-20T07:51:38;8.00;1.00
837;DHT22;400;53.550;9.932;2023-12-20T07:54:05;8.10;1.00
837;DHT22;400;53.550;9.932;2023-12-20T07:56:33;8.00;1.00
837;DHT22;400;53.550;9.932;2023-12-20T07:59:00;8.00;1.00
837;DHT22;400;53.550;9.932;2023-12-20T08:01:28;7.90;1.00
837;DHT22;400;53.550;9.932;2023-12-20T08:03:56;7.90;1.00
837;DHT22;400;53.550;9.932;2023-12-20T08:06:24;7.80;1.00
837;DHT22;400;53.550;9.932;2023-12-20T08:08:51;7.90;1.00
837;DHT22;400;53.550;9.932;2023-12-20T08:11:18;7.90;1.00
837;DHT22;400;53.550;9.932;2023-12-20T08:13:45;7.90;1.00
837;DHT22;400;53.550;9.932;2023-12-20T08:16:13;8.00;1.00
837;DHT22;400;53.550;9.932;2023-12-20T08:18:43;8.00;1.00
837;DHT22;400;53.550;9.932;2023-12-20T08:21:10;8.00;1.00
837;DHT22;400;53.550;9.932;2023-12-20T08:23:38;8.10;1.00
837;DHT22;400;53.550;9.932;2023-12-20T08:26:06;8.10;1.00
837;DHT22;400;53.550;9.932;2023-12-20T08:28:34;8.00;1.00
837;DHT22;400;53.550;9.932;2023-12-20T08:31:02;8.00;1.00
837;DHT22;400;53.550;9.932;2023-12-20T08:33:29;8.10;1.00
837;DHT22;400;53.550;9.932;2023-12-20T08:35:56;8.10;1.00
837;DHT22;400;53.550;9.932;2023-12-20T08:38:23;8.10;1.00
837;DHT22;400;53.550;9.932;2023-12-20T08:40:55;8.20;1.00
837;DHT22;400;53.550;9.932;2023-12-20T08:43:23;8.20;1.00
837;DHT22;400;53.550;9.932;2023-12-20T08:45:49;8.30;1.00
837;DHT22;400;53.550;9.932;2023-12-20T08:48:17;8.20;1.00
837;DHT22;400;53.550;9.932;2023-12-20T08:50:45;8.20;1.00
837;DHT22;400;53.550;9.932;2023-12-20T08:53:14;8.20;1.00
837;DHT22;400;53.550;9.932;2023-12-20T08:55:42;8.20;1.00
837;DHT22;400;53.550;9.932;2023-12-20T08:58:11;8.10;1.00
837;DHT22;400;53.550;9.932;2023-12-20T09:00:44;8.20;1.00
837;DHT22;400;53.550;9.932;2023-12-20T09:03:12;8.10;1.00
837;DHT22;400;53.550;9.932;2023-12-20T09:05:42;8.20;1.00
837;DHT22;400;53.550;9.932;2023-12-20T09:08:14;8.10;1.00
837;DHT22;400;53.550;9.932;2023-12-20T09:10:41;8.10;1.00
837;DHT22;400;53.550;9.932;2023-12-20T09:13:09;8.10;1.00
837;DHT22;400;53.550;9.932;2023-12-20T09:15:36;8.10;1.00
837;DHT22;400;53.550;9.932;2023-12-20T09:18:03;8.10;1.00
837;DHT22;400;53.550;9.932;2023-12-20T09:20:31;7.90;1.00
837;DHT22;400;53.550;9.932;2023-12-20T09:22:58;7.90;1.00
837;DHT22;400;53.550;9.932;2023-12-20T09:25:25;7.80;1.00
837;DHT22;400;53.550;9.932;2023-12-20T09:27:53;7.70;1.00
837;DHT22;400;53.550;9.932;2023-12-20T09:30:21;7.70;1.00
837;DHT22;400;53.550;9.932;2023-12-20T09:32:48;7.70;1.00
837;DHT22;400;53.550;9.932;2023-12-20T09:35:15;7.60;1.00
837;DHT22;400;53.550;9.932;2023-12-20T09:37:42;7.60;1.00
837;DHT22;400;53.550;9.932;2023-12-20T09:40:13;7.50;1.00
837;DHT22;400;53.550;9.932;2023-12-20T09:42:44;7.50;1.00
837;DHT22;400;53.550;9.932;2023-12-20T09:45:15;7.50;1.00
837;DHT22;400;53.550;9.932;2023-12-20T09:47:45;7.40;1.00
837;DHT22;400;53.550;9.932;2023-12-20T09:50:12;7.30;1.00
837;DHT22;400;53.550;9.932;2023-12-20T09:52:40;7.20;1.00
837;DHT22;400;53.550;9.932;2023-12-20T09:55:07;7.30;1.00
837;DHT22;400;53.550;9.932;2023-12-20T09:57:35;7.30;1.00
837;DHT22;400;53.550;9.932;2023-12-20T10:00:03;7.30;1.00
837;DHT22;400;53.550;9.932;2023-12-20T10:02:31;7.10;1.00
837;DHT22;400;53.550;9.932;2023-12-20T10:05:01;7.00;1.00
837;DHT22;400;53.550;9.932;2023-12-20T10:07:28;7.10;1.00
837;DHT22;400;53.550;9.932;2023-12-20T10:09:56;7.30;1.00
837;DHT22;400;53.550;9.932;2023-12-20T10:12:23;7.20;1.00
837;DHT22;400;53.550;9.932;2023-12-20T10:14:51;7.20;1.00
837;DHT22;400;53.550;9.932;2023-12-20T10:17:18;7.30;1.00
837;DHT22;400;53.550;9.932;2023-12-20T10:19:45;7.20;1.00
837;DHT22;400;53.550;9.932;2023-12-20T10:22:16;7.10;1.00
837;DHT22;400;53.550;9.932;2023-12-20T10:24:46;7.10;1.00
837;DHT22;400;53.550;9.932;2023-12-20T10:27:20;7.00;1.00
837;DHT22;400;53.550;9.932;2023-12-20T10:29:47;7.10;1.00
837;DHT22;400;53.550;9.932;2023-12-20T10:32:26;7.30;1.00
837;DHT22;400;53.550;9.932;2023-12-20T10:34:56;7.30;1.00
837;DHT22;400;53.550;9.932;2023-12-20T10:37:26;7.30;1.00
837;DHT22;400;53.550;9.932;2023-12-20T10:39:55;7.40;1.00
837;DHT22;400;53.550;9.932;2023-12-20T10:42:28;7.50;1.00
837;DHT22;400;53.550;9.932;2023-12-20T10:44:59;7.40;1.00
837;DHT22;400;53.550;9.932;2023-12-20T10:47:27;7.40;1.00
837;DHT22;400;53.550;9.932;2023-12-20T10:49:55;7.50;1.00
837;DHT22;400;53.550;9.932;2023-12-20T10:52:23;7.20;1.00
837;DHT22;400;53.550;9.932;2023-12-20T10:54:55;7.40;1.00
837;DHT22;400;53.550;9.932;2023-12-20T10:57:28;7.50;1.00
837;DHT22;400;53.550;9.932;2023-12-20T11:00:01;7.40;1.00
837;DHT22;400;53.550;9.932;2023-12-20T11:02:33;7.50;1.00
837;DHT22;400;53.550;9.932;2023-12-20T11:05:10;7.40;1.00
837;DHT22;400;53.550;9.932;2023-12-20T11:07:46;7.50;1.00
837;DHT22;400;53.550;9.932;2023-12-20T11:10:20;7.50;1.00
837;DHT22;400;53.550;9.932;2023-12-20T11:13:26;7.60;1.00
837;DHT22;400;53.550;9.932;2023-12-20T11:15:56;7.40;1.00
837;DHT22;400;53.550;9.932;2023-12-20T11:18:28;7.50;1.00
837;DHT22;400;53.550;9.932;2023-12-20T11:21:00;7.50;1.00
837;DHT22;400;53.550;9.932;2023-12-20T11:23:30;7.40;1.00
837;DHT22;400;53.550;9.932;2023-12-20T11:26:00;7.40;1.00
837;DHT22;400;53.550;9.932;2023-12-20T11:28:28;7.40;1.00
837;DHT22;400;53.550;9.932;2023-12-20T11:30:58;7.50;1.00
837;DHT22;400;53.550;9.932;2023-12-20T11:33:30;7.50;1.00
837;DHT22;400;53.550;9.932;2023-12-20T11:35:58;7.40;1.00
837;DHT22;400;53.550;9.932;2023-12-20T11:38:25;7.50;1.00
837;DHT22;400;53.550;9.932;2023-12-20T11:40:55;7.40;1.00
837;DHT22;400;53.550;9.932;2023-12-20T11:43:35;7.40;1.00
837;DHT22;400;53.550;9.932;2023-12-20T11:46:03;7.40;1.00
837;DHT22;400;53.550;9.932;2023-12-20T11:48:31;7.40;1.00
837;DHT22;400;53.550;9.932;2023-12-20T11:50:59;7.40;1.00
837;DHT22;400;53.550;9.932;2023-12-20T11:53:28;7.40;1.00
837;DHT22;400;53.550;9.932;2023-12-20T11:55:57;7.30;1.00
837;DHT22;400;53.550;9.932;2023-12-20T11:58:28;7.30;1.00
837;DHT22;400;53.550;9.932;2023-12-20T12:00:59;7.20;1.00
837;DHT22;400;53.550;9.932;2023-12-20T12:03:32;7.20;1.00
837;DHT22;400;53.550;9.932;2023-12-20T12:06:12;7.20;1.00
837;DHT22;400;53.550;9.932;2023-12-20T12:08:45;7.20;1.00
837;DHT22;400;53.550;9.932;2023-12-20T12:11:16;7.30;1.00
837;DHT22;400;53.550;9.932;2023-12-20T12:13:43;7.30;1.00
837;DHT22;400;53.550;9.932;2023-12-20T12:16:33;7.30;1.00
837;DHT22;400;53.550;9.932;2023-12-20T12:19:00;7.30;1.00
837;DHT22;400;53.550;9.932;2023-12-20T12:21:27;7.40;1.00
837;DHT22;400;53.550;9.932;2023-12-20T12:24:07;7.20;1.00
837;DHT22;400;53.550;9.932;2023-12-20T12:26:49;7.30;1.00
837;DHT22;400;53.550;9.932;2023-12-20T12:29:16;7.40;1.00
837;DHT22;400;53.550;9.932;2023-12-20T12:31:45;7.40;1.00
837;DHT22;400;53.550;9.932;2023-12-20T12:34:14;7.40;1.00
837;DHT22;400;53.550;9.932;2023-12-20T12:36:44;7.50;1.00
837;DHT22;400;53.550;9.932;2023-12-20T12:39:15;7.50;1.00
837;DHT22;400;53.550;9.932;2023-12-20T12:41:43;7.50;1.00
837;DHT22;400;53.550;9.932;2023-12-20T12:44:13;7.40;1.00
837;DHT22;400;53.550;9.932;2023-12-20T12:46:41;7.40;1.00
837;DHT22;400;53.550;9.932;2023-12-20T12:49:10;7.40;1.00
837;DHT22;400;53.550;9.932;2023-12-20T12:51:39;7.50;1.00
837;DHT22;400;53.550;9.932;2023-12-20T12:54:07;7.50;1.00
837;DHT22;400;53.550;9.932;2023-12-20T12:56:37;7.70;1.00
837;DHT22;400;53.550;9.932;2023-12-20T12:59:06;7.70;1.00
837;DHT22;400;53.550;9.932;2023-12-20T13:01:34;7.60;1.00
837;DHT22;400;53.550;9.932;2023-12-20T13:04:02;7.70;1.00
837;DHT22;400;53.550;9.932;2023-12-20T13:06:33;7.60;1.00
837;DHT22;400;53.550;9.932;2023-12-20T13:09:00;7.60;1.00
837;DHT22;400;53.550;9.932;2023-12-20T13:11:27;7.40;1.00
837;DHT22;400;53.550;9.932;2023-12-20T13:13:56;7.50;1.00
837;DHT22;400;53.550;9.932;2023-12-20T13:16:25;7.50;1.00
837;DHT22;400;53.550;9.932;2023-12-20T13:18:55;7.50;1.00
837;DHT22;400;53.550;9.932;2023-12-20T13:21:25;7.50;1.00
837;DHT22;400;53.550;9.932;2023-12-20T13:23:53;7.50;1.00
837;DHT22;400;53.550;9.932;2023-12-20T13:26:24;7.40;1.00
837;DHT22;400;53.550;9.932;2023-12-20T13:28:52;7.40;1.00
837;DHT22;400;53.550;9.932;2023-12-20T13:31:20;7.40;1.00
837;DHT22;400;53.550;9.932;2023-12-20T13:33:46;7.50;1.00
837;DHT22;400;53.550;9.932;2023-12-20T13:36:13;7.50;1.00
837;DHT22;400;53.550;9.932;2023-12-20T13:38:40;7.50;1.00
837;DHT22;400;53.550;9.932;2023-12-20T13:41:09;7.40;1.00
837;DHT22;400;53.550;9.932;2023-12-20T13:43:38;7.40;1.00
837;DHT22;400;53.550;9.932;2023-12-20T13:46:10;7.40;1.00
837;DHT22;400;53.550;9.932;2023-12-20T13:48:42;7.50;1.00
837;DHT22;400;53.550;9.932;2023-12-20T13:51:10;7.50;1.00
837;DHT22;400;53.550;9.932;2023-12-20T13:53:37;7.50;1.00
837;DHT22;400;53.550;9.932;2023-12-20T13:56:05;7.60;1.00
837;DHT22;400;53.550;9.932;2023-12-20T13:58:34;7.50;1.00
837;DHT22;400;53.550;9.932;2023-12-20T14:01:01;7.70;1.00
837;DHT22;400;53.550;9.932;2023-12-20T14:03:28;7.70;1.00
837;DHT22;400;53.550;9.932;2023-12-20T14:05:56;7.70;1.00
837;DHT22;400;53.550;9.932;2023-12-20T14:08:24;7.80;1.00
837;DHT22;400;53.550;9.932;2023-12-20T14:10:55;7.70;1.00
837;DHT22;400;53.550;9.932;2023-12-20T14:13:25;7.70;1.00
837;DHT22;400;53.550;9.932;2023-12-20T14:15:55;7.60;1.00
837;DHT22;400;53.550;9.932;2023-12-20T14:18:22;7.60;1.00
837;DHT22;400;53.550;9.932;2023-12-20T14:20:49;7.60;1.00
837;DHT22;400;53.550;9.932;2023-12-20T14:23:16;7.50;1.00
837;DHT22;400;53.550;9.932;2023-12-20T14:25:43;7.60;1.00
837;DHT22;400;53.550;9.932;2023-12-20T14:28:11;7.60;1.00
837;DHT22;400;53.550;9.932;2023-12-20T14:30:41;7.50;1.00
837;DHT22;400;53.550;9.932;2023-12-20T14:33:09;7.50;1.00
837;DHT22;400;53.550;9.932;2023-12-20T14:35:36;7.50;1.00
837;DHT22;400;53.550;9.932;2023-12-20T14:38:03;7.60;1.00
837;DHT22;400;53.550;9.932;2023-12-20T14:40:31;7.50;1.00
837;DHT22;400;53.550;9.932;2023-12-20T14:43:03;7.50;1.00
837;DHT22;400;53.550;9.932;2023-12-20T14:45:32;7.50;1.00
837;DHT22;400;53.550;9.932;2023-12-20T14:47:58;7.50;1.00
837;DHT22;400;53.550;9.932;2023-12-20T14:50:30;7.60;1.00
837;DHT22;400;53.550;9.932;2023-12-20T14:52:59;7.50;1.00
837;DHT22;400;53.550;9.932;2023-12-20T14:55:28;7.60;1.00
837;DHT22;400;53.550;9.932;2023-12-20T14:57:59;7.60;1.00
837;DHT22;400;53.550;9.932;2023-12-20T15:00:37;7.60;1.00
837;DHT22;400;53.550;9.932;2023-12-20T15:03:04;7.60;1.00
837;DHT22;400;53.550;9.932;2023-12-20T15:05:35;7.60;1.00
837;DHT22;400;53.550;9.932;2023-12-20T15:08:04;7.60;1.00
837;DHT22;400;53.550;9.932;2023-12-20T15:10:32;7.70;1.00
837;DHT22;400;53.550;9.932;2023-12-20T15:13:13;7.70;1.00
837;DHT22;400;53.550;9.932;2023-12-20T15:15:43;7.60;1.00
837;DHT22;400;53.550;9.932;2023-12-20T15:18:14;7.60;1.00
837;DHT22;400;53.550;9.932;2023-12-20T15:20:49;7.50;1.00
837;DHT22;400;53.550;9.932;2023-12-20T15:23:18;7.60;1.00
837;DHT22;400;53.550;9.932;2023-12-20T15:25:53;7.70;1.00
837;DHT22;400;53.550;9.932;2023-12-20T15:28:20;7.60;1.00
837;DHT22;400;53.550;9.932;2023-12-20T15:30:46;7.60;1.00
837;DHT22;400;53.550;9.932;2023-12-20T15:33:17;7.60;1.00
837;DHT22;400;53.550;9.932;2023-12-20T15:35:47;7.60;1.00
837;DHT22;400;53.550;9.932;2023-12-20T15:38:16;7.60;1.00
837;DHT22;400;53.550;9.932;2023-12-20T15:40:43;7.60;1.00
837;DHT22;400;53.550;9.932;2023-12-20T15:43:13;7.60;1.00
837;DHT22;400;53.550;9.932;2023-12-20T15:45:45;7.60;1.00
837;DHT22;400;53.550;9.932;2023-12-20T15:48:18;7.50;1.00
837;DHT22;400;53.550;9.932;2023-12-20T15:50:47;7.50;1.00
837;DHT22;400;53.550;9.932;2023-12-20T15:53:15;7.50;1.00
837;DHT22;400;53.550;9.932;2023-12-20T15:55:42;7.50;1.00
837;DHT22;400;53.550;9.932;2023-12-20T15:58:14;7.50;1.00
837;DHT22;400;53.550;9.932;2023-12-20T16:00:45;7.40;1.00
837;DHT22;400;53.550;9.932;2023-12-20T16:03:17;7.50;1.00
837;DHT22;400;53.550;9.932;2023-12-20T16:05:50;7.40;1.00
837;DHT22;400;53.550;9.932;2023-12-20T16:08:18;7.50;1.00
837;DHT22;400;53.550;9.932;2023-12-20T16:10:48;7.50;1.00
837;DHT22;400;53.550;9.932;2023-12-20T16:13:16;7.60;1.00
837;DHT22;400;53.550;9.932;2023-12-20T16:15:43;7.60;1.00
837;DHT22;400;53.550;9.932;2023-12-20T16:18:17;7.60;1.00
837;DHT22;400;53.550;9.932;2023-12-20T16:20:57;7.60;1.00
837;DHT22;400;53.550;9.932;2023-12-20T16:23:26;7.60;1.00
837;DHT22;400;53.550;9.932;2023-12-20T16:25:53;7.60;1.00
837;DHT22;400;53.550;9.932;2023-12-20T16:28:21;7.60;1.00
837;DHT22;400;53.550;9.932;2023-12-20T16:30:49;7.70;1.00
837;DHT22;400;53.550;9.932;2023-12-20T16:33:18;7.70;1.00
837;DHT22;400;53.550;9.932;2023-12-20T16:35:47;7.70;1.00
837;DHT22;400;53.550;9.932;2023-12-20T16:38:16;7.70;1.00
837;DHT22;400;53.550;9.932;2023-12-20T16:40:43;7.60;1.00
837;DHT22;400;53.550;9.932;2023-12-20T16:43:10;7.60;1.00
837;DHT22;400;53.550;9.932;2023-12-20T16:45:37;7.50;1.00
837;DHT22;400;53.550;9.932;2023-12-20T16:48:07;7.50;1.00
837;DHT22;400;53.550;9.932;2023-12-20T16:50:35;7.50;1.00
837;DHT22;400;53.550;9.932;2023-12-20T16:53:04;7.50;1.00
837;DHT22;400;53.550;9.932;2023-12-20T16:55:34;7.40;1.00
837;DHT22;400;53.550;9.932;2023-12-20T16:58:04;7.40;1.00
837;DHT22;400;53.550;9.932;2023-12-20T17:00:35;7.40;1.00
837;DHT22;400;53.550;9.932;2023-12-20T17:03:10;7.40;1.00
837;DHT22;400;53.550;9.932;2023-12-20T17:05:38;7.30;1.00
837;DHT22;400;53.550;9.932;2023-12-20T17:08:06;7.20;1.00
837;DHT22;400;53.550;9.932;2023-12-20T17:10:35;7.10;1.00
837;DHT22;400;53.550;9.932;2023-12-20T17:13:02;7.00;1.00
837;DHT22;400;53.550;9.932;2023-12-20T17:15:31;6.90;1.00
837;DHT22;400;53.550;9.932;2023-12-20T17:18:01;6.70;1.00